sensor_id;sensor_type;location;lat;lon;timestamp;P1;durP1;ratioP1;P2;durP2;ratioP2
23078;SDS011;11707;50.830;4.364;2023-11-22T00:01:47;32.83;;;20.52;;
23078;SDS011;11707;50.830;4.364;2023-11-22T00:04:14;33.53;;;20.80;;
23078;SDS011;11707;50.830;4.364;2023-11-22T00:06:43;28.77;;;20.10;;
23078;SDS011;11707;50.830;4.364;2023-11-22T00:09:08;30.23;;;20.95;;
23078;SDS011;11707;50.830;4.364;2023-11-22T00:11:34;31.73;;;20.67;;
23078;SDS011;11707;50.830;4.364;2023-11-22T00:14:00;32.17;;;20.80;;
23078;SDS011;11707;50.830;4.364;2023-11-22T00:16:26;32.50;;;21.17;;
23078;SDS011;11707;50.830;4.364;2023-11-22T00:18:52;36.95;;;21.58;;
23078;SDS011;11707;50.830;4.364;2023-11-22T00:21:18;34.40;;;21.77;;
23078;SDS011;11707;50.830;4.364;2023-11-22T00:23:46;35.75;;;21.45;;
23078;SDS011;11707;50.830;4.364;2023-11-22T00:26:12;37.00;;;22.85;;
23078;SDS011;11707;50.830;4.364;2023-11-22T00:28:38;34.85;;;22.45;;
23078;SDS011;11707;50.830;4.364;2023-11-22T00:31:03;35.90;;;23.20;;
23078;SDS011;11707;50.830;4.364;2023-11-22T00:33:29;41.40;;;23.70;;
23078;SDS011;11707;50.830;4.364;2023-11-22T00:35:56;33.75;;;22.63;;
23078;SDS011;11707;50.830;4.364;2023-11-22T00:38:23;33.17;;;21.40;;
23078;SDS011;11707;50.830;4.364;2023-11-22T00:40:49;33.88;;;21.77;;
23078;SDS011;11707;50.830;4.364;2023-11-22T00:43:17;30.00;;;20.42;;
23078;SDS011;11707;50.830;4.364;2023-11-22T00:45:44;34.63;;;21.85;;
23078;SDS011;11707;50.830;4.364;2023-11-22T00:48:10;32.28;;;20.92;;
23078;SDS011;11707;50.830;4.364;2023-11-22T00:50:36;34.38;;;21.33;;
23078;SDS011;11707;50.830;4.364;2023-11-22T00:53:02;36.05;;;22.13;;
23078;SDS011;11707;50.830;4.364;2023-11-22T00:55:27;41.10;;;24.25;;
23078;SDS011;11707;50.830;4.364;2023-11-22T00:57:53;39.65;;;23.17;;
23078;SDS011;11707;50.830;4.364;2023-11-22T01:00:19;40.25;;;22.38;;
23078;SDS011;11707;50.830;4.364;2023-11-22T01:02:47;39.63;;;26.05;;
23078;SDS011;11707;50.830;4.364;2023-11-22T01:05:13;31.35;;;21.98;;
23078;SDS011;11707;50.830;4.364;2023-11-22T01:07:40;33.13;;;22.10;;
23078;SDS011;11707;50.830;4.364;2023-11-22T01:10:06;33.63;;;22.10;;
23078;SDS011;11707;50.830;4.364;2023-11-22T01:12:32;35.92;;;23.42;;
23078;SDS011;11707;50.830;4.364;2023-11-22T01:15:01;35.00;;;21.95;;
23078;SDS011;11707;50.830;4.364;2023-11-22T01:17:26;33.38;;;22.77;;
23078;SDS011;11707;50.830;4.364;2023-11-22T01:19:52;35.47;;;21.73;;
23078;SDS011;11707;50.830;4.364;2023-11-22T01:22:18;32.13;;;22.15;;
23078;SDS011;11707;50.830;4.364;2023-11-22T01:24:47;36.95;;;23.13;;
23078;SDS011;11707;50.830;4.364;2023-11-22T01:27:13;31.00;;;20.27;;
23078;SDS011;11707;50.830;4.364;2023-11-22T01:29:39;36.17;;;22.25;;
23078;SDS011;11707;50.830;4.364;2023-11-22T01:32:06;34.92;;;22.38;;
23078;SDS011;11707;50.830;4.364;2023-11-22T01:34:34;36.35;;;22.45;;
23078;SDS011;11707;50.830;4.364;2023-11-22T01:36:59;36.40;;;21.73;;
23078;SDS011;11707;50.830;4.364;2023-11-22T01:39:25;37.15;;;23.95;;
23078;SDS011;11707;50.830;4.364;2023-11-22T01:41:54;35.90;;;22.30;;
23078;SDS011;11707;50.830;4.364;2023-11-22T01:44:20;34.30;;;22.52;;
23078;SDS011;11707;50.830;4.364;2023-11-22T01:46:49;33.90;;;20.63;;
23078;SDS011;11707;50.830;4.364;2023-11-22T01:49:14;34.72;;;22.40;;
23078;SDS011;11707;50.830;4.364;2023-11-22T01:51:40;38.15;;;23.67;;
23078;SDS011;11707;50.830;4.364;2023-11-22T01:54:06;33.83;;;22.83;;
23078;SDS011;11707;50.830;4.364;2023-11-22T01:56:34;38.60;;;23.02;;
23078;SDS011;11707;50.830;4.364;2023-11-22T01:59:04;38.85;;;22.60;;
23078;SDS011;11707;50.830;4.364;2023-11-22T02:01:30;38.97;;;23.05;;
23078;SDS011;11707;50.830;4.364;2023-11-22T02:03:56;36.83;;;23.15;;
23078;SDS011;11707;50.830;4.364;2023-11-22T02:06:22;39.97;;;22.35;;
23078;SDS011;11707;50.830;4.364;2023-11-22T02:08:49;35.15;;;22.50;;
23078;SDS011;11707;50.830;4.364;2023-11-22T02:11:18;34.85;;;22.80;;
23078;SDS011;11707;50.830;4.364;2023-11-22T02:13:50;36.58;;;22.35;;
23078;SDS011;11707;50.830;4.364;2023-11-22T02:16:18;35.50;;;23.05;;
23078;SDS011;11707;50.830;4.364;2023-11-22T02:18:45;34.25;;;21.95;;
23078;SDS011;11707;50.830;4.364;2023-11-22T02:21:12;32.95;;;22.25;;
23078;SDS011;11707;50.830;4.364;2023-11-22T02:23:38;37.97;;;23.08;;
23078;SDS011;11707;50.830;4.364;2023-11-22T02:26:04;40.05;;;23.80;;
23078;SDS011;11707;50.830;4.364;2023-11-22T02:28:29;35.70;;;23.27;;
23078;SDS011;11707;50.830;4.364;2023-11-22T02:30:55;39.20;;;24.35;;
23078;SDS011;11707;50.830;4.364;2023-11-22T02:33:21;38.67;;;24.05;;
23078;SDS011;11707;50.830;4.364;2023-11-22T02:35:46;37.63;;;23.70;;
23078;SDS011;11707;50.830;4.364;2023-11-22T02:38:12;38.63;;;24.15;;
23078;SDS011;11707;50.830;4.364;2023-11-22T02:40:43;41.75;;;24.25;;
23078;SDS011;11707;50.830;4.364;2023-11-22T02:43:11;36.13;;;23.98;;
23078;SDS011;11707;50.830;4.364;2023-11-22T02:45:37;39.65;;;24.83;;
23078;SDS011;11707;50.830;4.364;2023-11-22T02:48:05;35.33;;;22.55;;
23078;SDS011;11707;50.830;4.364;2023-11-22T02:50:34;41.40;;;23.15;;
23078;SDS011;11707;50.830;4.364;2023-11-22T02:53:01;33.88;;;22.02;;
23078;SDS011;11707;50.830;4.364;2023-11-22T02:55:27;34.72;;;22.63;;
23078;SDS011;11707;50.830;4.364;2023-11-22T02:57:53;39.42;;;24.00;;
23078;SDS011;11707;50.830;4.364;2023-11-22T03:00:21;36.80;;;23.25;;
23078;SDS011;11707;50.830;4.364;2023-11-22T03:02:49;34.55;;;22.35;;
23078;SDS011;11707;50.830;4.364;2023-11-22T03:05:19;35.20;;;22.42;;
23078;SDS011;11707;50.830;4.364;2023-11-22T03:07:45;36.38;;;22.33;;
23078;SDS011;11707;50.830;4.364;2023-11-22T03:10:12;34.83;;;22.60;;
23078;SDS011;11707;50.830;4.364;2023-11-22T03:12:38;37.28;;;22.10;;
23078;SDS011;11707;50.830;4.364;2023-11-22T03:15:03;35.22;;;22.77;;
23078;SDS011;11707;50.830;4.364;2023-11-22T03:17:34;32.90;;;21.92;;
23078;SDS011;11707;50.830;4.364;2023-11-22T03:20:00;34.65;;;22.27;;
23078;SDS011;11707;50.830;4.364;2023-11-22T03:22:26;40.33;;;23.20;;
23078;SDS011;11707;50.830;4.364;2023-11-22T03:24:55;37.42;;;23.00;;
23078;SDS011;11707;50.830;4.364;2023-11-22T03:27:21;38.60;;;23.35;;
23078;SDS011;11707;50.830;4.364;2023-11-22T03:29:48;37.72;;;23.98;;
23078;SDS011;11707;50.830;4.364;2023-11-22T03:32:16;38.67;;;24.75;;
23078;SDS011;11707;50.830;4.364;2023-11-22T03:34:42;34.03;;;22.17;;
23078;SDS011;11707;50.830;4.364;2023-11-22T03:37:08;39.65;;;24.15;;
23078;SDS011;11707;50.830;4.364;2023-11-22T03:39:34;38.17;;;23.75;;
23078;SDS011;11707;50.830;4.364;2023-11-22T03:42:00;39.20;;;23.85;;
23078;SDS011;11707;50.830;4.364;2023-11-22T03:44:26;37.03;;;22.45;;
23078;SDS011;11707;50.830;4.364;2023-11-22T03:46:53;40.70;;;22.98;;
23078;SDS011;11707;50.830;4.364;2023-11-22T03:49:19;34.90;;;22.15;;
23078;SDS011;11707;50.830;4.364;2023-11-22T03:52:03;35.78;;;22.02;;
23078;SDS011;11707;50.830;4.364;2023-11-22T03:54:28;32.72;;;22.45;;
23078;SDS011;11707;50.830;4.364;2023-11-22T03:56:54;34.17;;;21.98;;
23078;SDS011;11707;50.830;4.364;2023-11-22T03:59:20;35.28;;;21.63;;
23078;SDS011;11707;50.830;4.364;2023-11-22T04:01:46;31.27;;;20.92;;
23078;SDS011;11707;50.830;4.364;2023-11-22T04:04:13;31.80;;;21.73;;
23078;SDS011;11707;50.830;4.364;2023-11-22T04:06:39;39.00;;;21.73;;
23078;SDS011;11707;50.830;4.364;2023-11-22T04:09:05;35.47;;;21.05;;
23078;SDS011;11707;50.830;4.364;2023-11-22T04:11:34;36.97;;;21.15;;
23078;SDS011;11707;50.830;4.364;2023-11-22T04:14:00;33.45;;;21.60;;
23078;SDS011;11707;50.830;4.364;2023-11-22T04:16:25;38.67;;;21.55;;
23078;SDS011;11707;50.830;4.364;2023-11-22T04:18:51;36.05;;;22.35;;
23078;SDS011;11707;50.830;4.364;2023-11-22T04:21:17;34.30;;;22.33;;
23078;SDS011;11707;50.830;4.364;2023-11-22T04:23:46;36.65;;;21.88;;
23078;SDS011;11707;50.830;4.364;2023-11-22T04:26:13;34.30;;;22.15;;
23078;SDS011;11707;50.830;4.364;2023-11-22T04:28:39;33.03;;;21.15;;
23078;SDS011;11707;50.830;4.364;2023-11-22T04:31:04;34.67;;;21.95;;
23078;SDS011;11707;50.830;4.364;2023-11-22T04:33:30;31.70;;;20.67;;
23078;SDS011;11707;50.830;4.364;2023-11-22T04:35:56;38.45;;;21.92;;
23078;SDS011;11707;50.830;4.364;2023-11-22T04:38:22;33.97;;;21.88;;
23078;SDS011;11707;50.830;4.364;2023-11-22T04:40:47;33.95;;;21.35;;
23078;SDS011;11707;50.830;4.364;2023-11-22T04:43:13;31.42;;;19.98;;
23078;SDS011;11707;50.830;4.364;2023-11-22T04:45:39;33.45;;;20.55;;
23078;SDS011;11707;50.830;4.364;2023-11-22T04:48:05;33.13;;;21.48;;
23078;SDS011;11707;50.830;4.364;2023-11-22T04:50:34;39.58;;;21.98;;
23078;SDS011;11707;50.830;4.364;2023-11-22T04:53:00;33.88;;;20.80;;
23078;SDS011;11707;50.830;4.364;2023-11-22T04:55:29;32.80;;;21.05;;
23078;SDS011;11707;50.830;4.364;2023-11-22T04:57:55;36.50;;;20.65;;
23078;SDS011;11707;50.830;4.364;2023-11-22T05:00:23;34.63;;;21.52;;
23078;SDS011;11707;50.830;4.364;2023-11-22T05:02:48;38.10;;;24.25;;
23078;SDS011;11707;50.830;4.364;2023-11-22T05:05:19;35.75;;;23.25;;
23078;SDS011;11707;50.830;4.364;2023-11-22T05:07:45;38.85;;;23.20;;
23078;SDS011;11707;50.830;4.364;2023-11-22T05:10:11;32.47;;;22.20;;
23078;SDS011;11707;50.830;4.364;2023-11-22T05:12:36;33.38;;;21.52;;
23078;SDS011;11707;50.830;4.364;2023-11-22T05:15:03;33.03;;;22.55;;
23078;SDS011;11707;50.830;4.364;2023-11-22T05:17:29;37.30;;;22.98;;
23078;SDS011;11707;50.830;4.364;2023-11-22T05:19:55;36.35;;;22.75;;
23078;SDS011;11707;50.830;4.364;2023-11-22T05:22:21;31.50;;;20.95;;
23078;SDS011;11707;50.830;4.364;2023-11-22T05:24:48;36.53;;;22.35;;
23078;SDS011;11707;50.830;4.364;2023-11-22T05:27:14;34.75;;;21.52;;
23078;SDS011;11707;50.830;4.364;2023-11-22T05:29:42;38.05;;;21.83;;
23078;SDS011;11707;50.830;4.364;2023-11-22T05:32:08;34.50;;;21.60;;
23078;SDS011;11707;50.830;4.364;2023-11-22T05:34:34;35.13;;;21.85;;
23078;SDS011;11707;50.830;4.364;2023-11-22T05:37:00;33.83;;;21.10;;
23078;SDS011;11707;50.830;4.364;2023-11-22T05:39:26;33.72;;;22.63;;
23078;SDS011;11707;50.830;4.364;2023-11-22T05:41:54;36.65;;;22.48;;
23078;SDS011;11707;50.830;4.364;2023-11-22T05:44:19;37.20;;;22.83;;
23078;SDS011;11707;50.830;4.364;2023-11-22T05:46:45;35.63;;;22.48;;
23078;SDS011;11707;50.830;4.364;2023-11-22T05:49:11;34.65;;;21.42;;
23078;SDS011;11707;50.830;4.364;2023-11-22T05:51:36;36.28;;;21.02;;
23078;SDS011;11707;50.830;4.364;2023-11-22T05:54:02;40.72;;;23.65;;
23078;SDS011;11707;50.830;4.364;2023-11-22T05:56:29;35.42;;;21.95;;
23078;SDS011;11707;50.830;4.364;2023-11-22T05:58:57;37.05;;;22.25;;
23078;SDS011;11707;50.830;4.364;2023-11-22T06:01:25;33.53;;;21.35;;
23078;SDS011;11707;50.830;4.364;2023-11-22T06:03:55;36.35;;;21.48;;
23078;SDS011;11707;50.830;4.364;2023-11-22T06:06:21;39.38;;;21.50;;
23078;SDS011;11707;50.830;4.364;2023-11-22T06:08:49;36.13;;;22.30;;
23078;SDS011;11707;50.830;4.364;2023-11-22T06:11:18;36.88;;;22.42;;
23078;SDS011;11707;50.830;4.364;2023-11-22T06:13:44;36.08;;;21.85;;
23078;SDS011;11707;50.830;4.364;2023-11-22T06:16:12;35.35;;;21.25;;
23078;SDS011;11707;50.830;4.364;2023-11-22T06:18:37;37.58;;;20.55;;
23078;SDS011;11707;50.830;4.364;2023-11-22T06:21:06;33.50;;;21.30;;
23078;SDS011;11707;50.830;4.364;2023-11-22T06:23:32;35.20;;;20.98;;
23078;SDS011;11707;50.830;4.364;2023-11-22T06:25:58;33.50;;;21.67;;
23078;SDS011;11707;50.830;4.364;2023-11-22T06:28:24;35.75;;;22.13;;
23078;SDS011;11707;50.830;4.364;2023-11-22T06:30:49;42.95;;;23.85;;
23078;SDS011;11707;50.830;4.364;2023-11-22T06:33:15;63.42;;;39.47;;
23078;SDS011;11707;50.830;4.364;2023-11-22T06:35:41;34.80;;;22.85;;
23078;SDS011;11707;50.830;4.364;2023-11-22T06:38:07;37.75;;;22.70;;
23078;SDS011;11707;50.830;4.364;2023-11-22T06:40:34;37.85;;;22.60;;
23078;SDS011;11707;50.830;4.364;2023-11-22T06:43:02;37.50;;;22.00;;
23078;SDS011;11707;50.830;4.364;2023-11-22T06:45:29;38.90;;;21.63;;
23078;SDS011;11707;50.830;4.364;2023-11-22T06:47:56;36.60;;;22.15;;
23078;SDS011;11707;50.830;4.364;2023-11-22T06:50:23;37.33;;;22.75;;
23078;SDS011;11707;50.830;4.364;2023-11-22T06:52:51;36.58;;;23.23;;
23078;SDS011;11707;50.830;4.364;2023-11-22T06:55:18;40.63;;;22.17;;
23078;SDS011;11707;50.830;4.364;2023-11-22T06:57:43;38.10;;;24.27;;
23078;SDS011;11707;50.830;4.364;2023-11-22T07:00:09;37.13;;;23.48;;
23078;SDS011;11707;50.830;4.364;2023-11-22T07:02:38;34.88;;;22.02;;
23078;SDS011;11707;50.830;4.364;2023-11-22T07:05:05;38.88;;;22.00;;
23078;SDS011;11707;50.830;4.364;2023-11-22T07:07:37;36.50;;;22.52;;
23078;SDS011;11707;50.830;4.364;2023-11-22T07:10:06;30.80;;;21.00;;
23078;SDS011;11707;50.830;4.364;2023-11-22T07:12:36;36.08;;;21.20;;
23078;SDS011;11707;50.830;4.364;2023-11-22T07:15:03;33.65;;;22.42;;
23078;SDS011;11707;50.830;4.364;2023-11-22T07:17:30;34.35;;;22.52;;
23078;SDS011;11707;50.830;4.364;2023-11-22T07:19:58;37.10;;;21.85;;
23078;SDS011;11707;50.830;4.364;2023-11-22T07:22:25;39.67;;;21.90;;
23078;SDS011;11707;50.830;4.364;2023-11-22T07:24:51;36.38;;;23.17;;
23078;SDS011;11707;50.830;4.364;2023-11-22T07:27:19;36.85;;;22.15;;
23078;SDS011;11707;50.830;4.364;2023-11-22T07:29:47;43.90;;;22.98;;
23078;SDS011;11707;50.830;4.364;2023-11-22T07:32:19;32.72;;;21.58;;
23078;SDS011;11707;50.830;4.364;2023-11-22T07:34:45;37.70;;;22.02;;
23078;SDS011;11707;50.830;4.364;2023-11-22T07:37:12;40.17;;;23.38;;
23078;SDS011;11707;50.830;4.364;2023-11-22T07:39:39;32.15;;;21.20;;
23078;SDS011;11707;50.830;4.364;2023-11-22T07:42:08;32.60;;;21.52;;
23078;SDS011;11707;50.830;4.364;2023-11-22T07:44:34;33.58;;;21.00;;
23078;SDS011;11707;50.830;4.364;2023-11-22T07:47:02;36.47;;;20.48;;
23078;SDS011;11707;50.830;4.364;2023-11-22T07:49:32;35.47;;;21.90;;
23078;SDS011;11707;50.830;4.364;2023-11-22T07:52:01;32.90;;;21.17;;
23078;SDS011;11707;50.830;4.364;2023-11-22T07:54:27;31.33;;;20.58;;
23078;SDS011;11707;50.830;4.364;2023-11-22T07:56:55;38.08;;;22.10;;
23078;SDS011;11707;50.830;4.364;2023-11-22T07:59:21;31.17;;;19.88;;
23078;SDS011;11707;50.830;4.364;2023-11-22T08:01:49;32.20;;;21.65;;
23078;SDS011;11707;50.830;4.364;2023-11-22T08:04:18;35.28;;;20.00;;
23078;SDS011;11707;50.830;4.364;2023-11-22T08:06:48;32.90;;;19.73;;
23078;SDS011;11707;50.830;4.364;2023-11-22T08:09:14;31.05;;;20.50;;
23078;SDS011;11707;50.830;4.364;2023-11-22T08:11:41;33.28;;;20.75;;
23078;SDS011;11707;50.830;4.364;2023-11-22T08:14:07;32.65;;;20.15;;
23078;SDS011;11707;50.830;4.364;2023-11-22T08:16:33;40.88;;;21.17;;
23078;SDS011;11707;50.830;4.364;2023-11-22T08:19:03;35.22;;;21.45;;
23078;SDS011;11707;50.830;4.364;2023-11-22T08:21:30;32.85;;;20.42;;
23078;SDS011;11707;50.830;4.364;2023-11-22T08:23:56;33.55;;;20.90;;
23078;SDS011;11707;50.830;4.364;2023-11-22T08:26:24;32.20;;;21.10;;
23078;SDS011;11707;50.830;4.364;2023-11-22T08:28:51;42.55;;;22.23;;
23078;SDS011;11707;50.830;4.364;2023-11-22T08:31:16;38.03;;;21.60;;
23078;SDS011;11707;50.830;4.364;2023-11-22T08:33:42;31.42;;;19.27;;
23078;SDS011;11707;50.830;4.364;2023-11-22T08:36:08;30.90;;;19.50;;
23078;SDS011;11707;50.830;4.364;2023-11-22T08:38:34;29.75;;;18.65;;
23078;SDS011;11707;50.830;4.364;2023-11-22T08:41:01;26.17;;;17.38;;
23078;SDS011;11707;50.830;4.364;2023-11-22T08:43:28;29.05;;;18.88;;
23078;SDS011;11707;50.830;4.364;2023-11-22T08:45:57;28.60;;;19.45;;
23078;SDS011;11707;50.830;4.364;2023-11-22T08:48:26;28.60;;;17.90;;
23078;SDS011;11707;50.830;4.364;2023-11-22T08:50:52;27.45;;;18.15;;
23078;SDS011;11707;50.830;4.364;2023-11-22T08:53:20;29.00;;;18.40;;
23078;SDS011;11707;50.830;4.364;2023-11-22T08:55:49;33.38;;;19.75;;
23078;SDS011;11707;50.830;4.364;2023-11-22T08:58:15;34.10;;;20.40;;
23078;SDS011;11707;50.830;4.364;2023-11-22T09:00:41;29.02;;;19.27;;
23078;SDS011;11707;50.830;4.364;2023-11-22T09:03:10;31.25;;;18.75;;
23078;SDS011;11707;50.830;4.364;2023-11-22T09:05:41;30.90;;;19.25;;
23078;SDS011;11707;50.830;4.364;2023-11-22T09:08:11;26.77;;;18.48;;
23078;SDS011;11707;50.830;4.364;2023-11-22T09:10:40;30.75;;;20.05;;
23078;SDS011;11707;50.830;4.364;2023-11-22T09:13:07;31.80;;;19.67;;
23078;SDS011;11707;50.830;4.364;2023-11-22T09:15:34;36.55;;;20.50;;
23078;SDS011;11707;50.830;4.364;2023-11-22T09:18:02;30.48;;;18.70;;
23078;SDS011;11707;50.830;4.364;2023-11-22T09:20:28;28.05;;;19.15;;
23078;SDS011;11707;50.830;4.364;2023-11-22T09:22:54;32.25;;;20.63;;
23078;SDS011;11707;50.830;4.364;2023-11-22T09:25:21;32.60;;;20.33;;
23078;SDS011;11707;50.830;4.364;2023-11-22T09:27:48;32.78;;;19.38;;
23078;SDS011;11707;50.830;4.364;2023-11-22T09:30:18;27.17;;;19.00;;
23078;SDS011;11707;50.830;4.364;2023-11-22T09:33:01;30.48;;;19.83;;
23078;SDS011;11707;50.830;4.364;2023-11-22T09:35:27;28.40;;;19.10;;
23078;SDS011;11707;50.830;4.364;2023-11-22T09:37:59;27.83;;;18.90;;
23078;SDS011;11707;50.830;4.364;2023-11-22T09:40:28;32.03;;;20.70;;
23078;SDS011;11707;50.830;4.364;2023-11-22T09:42:57;29.25;;;19.38;;
23078;SDS011;11707;50.830;4.364;2023-11-22T09:45:25;30.20;;;19.10;;
23078;SDS011;11707;50.830;4.364;2023-11-22T09:47:51;31.55;;;20.00;;
23078;SDS011;11707;50.830;4.364;2023-11-22T09:50:20;32.55;;;19.60;;
23078;SDS011;11707;50.830;4.364;2023-11-22T09:53:02;32.58;;;20.23;;
23078;SDS011;11707;50.830;4.364;2023-11-22T09:55:35;31.83;;;19.65;;
23078;SDS011;11707;50.830;4.364;2023-11-22T09:58:02;30.77;;;20.20;;
23078;SDS011;11707;50.830;4.364;2023-11-22T10:00:31;28.23;;;19.33;;
23078;SDS011;11707;50.830;4.364;2023-11-22T10:02:57;29.98;;;19.30;;
23078;SDS011;11707;50.830;4.364;2023-11-22T10:05:23;28.05;;;19.27;;
23078;SDS011;11707;50.830;4.364;2023-11-22T10:07:53;31.27;;;20.67;;
23078;SDS011;11707;50.830;4.364;2023-11-22T10:10:23;35.30;;;19.80;;
23078;SDS011;11707;50.830;4.364;2023-11-22T10:12:53;38.28;;;22.00;;
23078;SDS011;11707;50.830;4.364;2023-11-22T10:15:23;29.55;;;19.88;;
23078;SDS011;11707;50.830;4.364;2023-11-22T10:20:21;30.23;;;19.63;;
23078;SDS011;11707;50.830;4.364;2023-11-22T10:22:55;27.23;;;19.05;;
23078;SDS011;11707;50.830;4.364;2023-11-22T10:25:28;28.23;;;19.30;;
23078;SDS011;11707;50.830;4.364;2023-11-22T10:27:57;24.83;;;17.52;;
23078;SDS011;11707;50.830;4.364;2023-11-22T10:30:23;30.25;;;18.17;;
23078;SDS011;11707;50.830;4.364;2023-11-22T10:32:49;24.63;;;18.33;;
23078;SDS011;11707;50.830;4.364;2023-11-22T10:35:17;29.52;;;17.92;;
23078;SDS011;11707;50.830;4.364;2023-11-22T10:37:47;30.92;;;19.23;;
23078;SDS011;11707;50.830;4.364;2023-11-22T10:40:13;27.85;;;18.48;;
23078;SDS011;11707;50.830;4.364;2023-11-22T10:42:41;27.67;;;17.08;;
23078;SDS011;11707;50.830;4.364;2023-11-22T10:45:13;25.63;;;17.02;;
23078;SDS011;11707;50.830;4.364;2023-11-22T10:47:40;24.80;;;18.33;;
23078;SDS011;11707;50.830;4.364;2023-11-22T10:50:08;32.33;;;18.10;;
23078;SDS011;11707;50.830;4.364;2023-11-22T10:52:35;24.83;;;17.92;;
23078;SDS011;11707;50.830;4.364;2023-11-22T10:55:03;22.65;;;16.55;;
23078;SDS011;11707;50.830;4.364;2023-11-22T10:57:31;27.08;;;17.33;;
23078;SDS011;11707;50.830;4.364;2023-11-22T11:00:04;23.83;;;15.43;;
23078;SDS011;11707;50.830;4.364;2023-11-22T11:02:31;28.30;;;18.48;;
23078;SDS011;11707;50.830;4.364;2023-11-22T11:05:23;27.52;;;16.75;;
23078;SDS011;11707;50.830;4.364;2023-11-22T11:08:09;25.23;;;16.98;;
23078;SDS011;11707;50.830;4.364;2023-11-22T11:10:41;24.35;;;16.85;;
23078;SDS011;11707;50.830;4.364;2023-11-22T11:13:07;20.65;;;14.88;;
23078;SDS011;11707;50.830;4.364;2023-11-22T11:15:40;26.50;;;16.77;;
23078;SDS011;11707;50.830;4.364;2023-11-22T11:18:13;22.77;;;16.92;;
23078;SDS011;11707;50.830;4.364;2023-11-22T11:20:53;23.45;;;15.80;;
23078;SDS011;11707;50.830;4.364;2023-11-22T11:23:19;23.67;;;17.00;;
23078;SDS011;11707;50.830;4.364;2023-11-22T11:25:50;20.35;;;14.43;;
23078;SDS011;11707;50.830;4.364;2023-11-22T11:28:20;20.65;;;14.88;;
23078;SDS011;11707;50.830;4.364;2023-11-22T11:33:27;26.30;;;15.95;;
23078;SDS011;11707;50.830;4.364;2023-11-22T11:35:58;22.48;;;15.65;;
23078;SDS011;11707;50.830;4.364;2023-11-22T11:38:32;21.17;;;14.73;;
23078;SDS011;11707;50.830;4.364;2023-11-22T11:41:08;22.02;;;15.52;;
23078;SDS011;11707;50.830;4.364;2023-11-22T11:46:13;25.65;;;16.50;;
23078;SDS011;11707;50.830;4.364;2023-11-22T11:48:52;21.52;;;16.13;;
23078;SDS011;11707;50.830;4.364;2023-11-22T11:51:19;34.47;;;15.57;;
23078;SDS011;11707;50.830;4.364;2023-11-22T11:53:47;25.98;;;15.93;;
23078;SDS011;11707;50.830;4.364;2023-11-22T11:56:14;24.48;;;15.95;;
23078;SDS011;11707;50.830;4.364;2023-11-22T11:58:44;22.48;;;15.02;;
23078;SDS011;11707;50.830;4.364;2023-11-22T12:01:14;23.15;;;15.50;;
23078;SDS011;11707;50.830;4.364;2023-11-22T12:03:42;18.30;;;14.05;;
23078;SDS011;11707;50.830;4.364;2023-11-22T12:06:14;23.02;;;15.10;;
23078;SDS011;11707;50.830;4.364;2023-11-22T12:08:43;21.23;;;12.90;;
23078;SDS011;11707;50.830;4.364;2023-11-22T12:11:10;18.20;;;13.05;;
23078;SDS011;11707;50.830;4.364;2023-11-22T12:13:45;19.42;;;12.23;;
23078;SDS011;11707;50.830;4.364;2023-11-22T12:16:17;17.33;;;12.13;;
23078;SDS011;11707;50.830;4.364;2023-11-22T12:18:43;17.65;;;12.35;;
23078;SDS011;11707;50.830;4.364;2023-11-22T12:21:10;17.30;;;11.98;;
23078;SDS011;11707;50.830;4.364;2023-11-22T12:23:38;17.88;;;12.25;;
23078;SDS011;11707;50.830;4.364;2023-11-22T12:26:12;23.48;;;16.92;;
23078;SDS011;11707;50.830;4.364;2023-11-22T12:28:40;20.50;;;15.05;;
23078;SDS011;11707;50.830;4.364;2023-11-22T12:31:10;23.25;;;14.82;;
23078;SDS011;11707;50.830;4.364;2023-11-22T12:33:37;23.15;;;15.40;;
23078;SDS011;11707;50.830;4.364;2023-11-22T12:36:05;26.50;;;16.58;;
23078;SDS011;11707;50.830;4.364;2023-11-22T12:38:31;24.55;;;15.55;;
23078;SDS011;11707;50.830;4.364;2023-11-22T12:40:57;20.65;;;15.15;;
23078;SDS011;11707;50.830;4.364;2023-11-22T12:43:24;20.98;;;14.75;;
23078;SDS011;11707;50.830;4.364;2023-11-22T12:46:00;19.27;;;13.90;;
23078;SDS011;11707;50.830;4.364;2023-11-22T12:48:35;21.65;;;14.50;;
23078;SDS011;11707;50.830;4.364;2023-11-22T12:51:01;21.27;;;14.63;;
23078;SDS011;11707;50.830;4.364;2023-11-22T12:53:27;24.27;;;14.55;;
23078;SDS011;11707;50.830;4.364;2023-11-22T12:55:54;22.95;;;12.60;;
23078;SDS011;11707;50.830;4.364;2023-11-22T12:58:23;21.48;;;13.73;;
23078;SDS011;11707;50.830;4.364;2023-11-22T13:00:53;18.80;;;14.48;;
23078;SDS011;11707;50.830;4.364;2023-11-22T13:03:27;21.50;;;14.45;;
23078;SDS011;11707;50.830;4.364;2023-11-22T13:05:53;21.08;;;14.05;;
23078;SDS011;11707;50.830;4.364;2023-11-22T13:08:22;19.10;;;13.43;;
23078;SDS011;11707;50.830;4.364;2023-11-22T13:10:50;30.73;;;17.27;;
23078;SDS011;11707;50.830;4.364;2023-11-22T13:13:22;25.52;;;15.68;;
23078;SDS011;11707;50.830;4.364;2023-11-22T13:15:52;20.57;;;14.33;;
23078;SDS011;11707;50.830;4.364;2023-11-22T13:18:22;21.38;;;15.10;;
23078;SDS011;11707;50.830;4.364;2023-11-22T13:20:47;24.55;;;14.93;;
23078;SDS011;11707;50.830;4.364;2023-11-22T13:23:15;19.40;;;14.25;;
23078;SDS011;11707;50.830;4.364;2023-11-22T13:25:41;25.00;;;15.73;;
23078;SDS011;11707;50.830;4.364;2023-11-22T13:28:07;27.63;;;15.98;;
23078;SDS011;11707;50.830;4.364;2023-11-22T13:30:33;21.85;;;15.95;;
23078;SDS011;11707;50.830;4.364;2023-11-22T13:33:00;32.58;;;16.77;;
23078;SDS011;11707;50.830;4.364;2023-11-22T13:35:28;24.85;;;16.27;;
23078;SDS011;11707;50.830;4.364;2023-11-22T13:38:02;25.80;;;15.32;;
23078;SDS011;11707;50.830;4.364;2023-11-22T13:40:32;23.20;;;15.88;;
23078;SDS011;11707;50.830;4.364;2023-11-22T13:42:58;22.95;;;15.73;;
23078;SDS011;11707;50.830;4.364;2023-11-22T13:45:24;20.98;;;15.32;;
23078;SDS011;11707;50.830;4.364;2023-11-22T13:47:54;20.67;;;14.98;;
23078;SDS011;11707;50.830;4.364;2023-11-22T13:50:25;26.80;;;17.70;;
23078;SDS011;11707;50.830;4.364;2023-11-22T13:52:55;19.83;;;13.98;;
23078;SDS011;11707;50.830;4.364;2023-11-22T13:55:21;23.17;;;14.52;;
23078;SDS011;11707;50.830;4.364;2023-11-22T13:57:52;22.85;;;14.13;;
23078;SDS011;11707;50.830;4.364;2023-11-22T14:00:19;23.75;;;13.85;;
23078;SDS011;11707;50.830;4.364;2023-11-22T14:02:52;21.98;;;12.32;;
23078;SDS011;11707;50.830;4.364;2023-11-22T14:05:30;20.02;;;13.85;;
23078;SDS011;11707;50.830;4.364;2023-11-22T14:07:57;20.17;;;13.25;;
23078;SDS011;11707;50.830;4.364;2023-11-22T14:10:23;22.35;;;12.95;;
23078;SDS011;11707;50.830;4.364;2023-11-22T14:12:49;20.58;;;12.60;;
23078;SDS011;11707;50.830;4.364;2023-11-22T14:15:18;20.08;;;13.20;;
23078;SDS011;11707;50.830;4.364;2023-11-22T14:17:44;25.10;;;13.65;;
23078;SDS011;11707;50.830;4.364;2023-11-22T14:20:14;17.27;;;12.93;;
23078;SDS011;11707;50.830;4.364;2023-11-22T14:22:40;18.33;;;14.15;;
23078;SDS011;11707;50.830;4.364;2023-11-22T14:25:07;20.92;;;13.60;;
23078;SDS011;11707;50.830;4.364;2023-11-22T14:27:37;27.65;;;13.90;;
23078;SDS011;11707;50.830;4.364;2023-11-22T14:30:10;28.63;;;14.50;;
23078;SDS011;11707;50.830;4.364;2023-11-22T14:32:40;23.38;;;14.13;;